»·PEaware :: N31SL KVGT-KIFP

N31SL :: KVGT-KIFP

FLIGHT INFORMATION

Flight Status: Arrived
Operator: Privately registered:
United States
More flights under this callsign
Pilot: John M. (38076)
Aircraft: Diamond DA-62
(DA62)
More flights by this aircraft type
Origin: KVGT North Las Vegas
United States
Destination: KIFP Laughlin/Bullhead Intl
United States
More flights between these airports :: More routes between these airports
Route: NOTWN5 LAS BLD V237 UNPAS
File this flight plan on PilotEdge
Remarks: PRACTICE ILS RNAV GPS 34
Altitude:
(Current/Filed)
9,000ft
Speed:
(Current/Filed)
155kts
Departed: 22-Jan-22 08:28 PM
Arrived: 22-Jan-22 09:16 PM
Distance/Time
Traveled:
71nm/0:48
Distance/Time
To Go:
Arrived

Flight Plot

Page will automatically refresh every two minutes.

Flight plan parsing failed; only flown route is shown


Map Options




Map Legend


Flown Route
Filed Route
Departure Airport
Arrival Airport
Navaid (VOR, NDB)
Fix

Horizontal Profiles

Position Reports

Time Latitude Longitude Heading Altitude Ground
Speed
22-Jan-22 20:01 36.209280 -115.198777 314 2196ft 0kts
22-Jan-22 20:02 36.209280 -115.198777 314 2196ft 0kts
22-Jan-22 20:03 36.209280 -115.198777 314 2196ft 0kts
22-Jan-22 20:04 36.209280 -115.198777 314 2196ft 0kts
22-Jan-22 20:05 36.209280 -115.198777 314 2196ft 0kts
22-Jan-22 20:06 36.209315 -115.198337 79 2195ft 0kts
22-Jan-22 20:07 36.209315 -115.198337 79 2195ft 0kts
22-Jan-22 20:08 36.209315 -115.198337 79 2195ft 0kts
22-Jan-22 20:09 36.209315 -115.198337 79 2195ft 0kts
22-Jan-22 20:10 36.209315 -115.198337 79 2195ft 0kts
22-Jan-22 20:11 36.209315 -115.198337 79 2195ft 0kts
22-Jan-22 20:12 36.209315 -115.198337 79 2195ft 0kts
22-Jan-22 20:13 36.209315 -115.198337 79 2195ft 0kts
22-Jan-22 20:14 36.209315 -115.198337 79 2195ft 0kts
22-Jan-22 20:15 36.209315 -115.198337 79 2195ft 0kts
22-Jan-22 20:16 36.209315 -115.198337 79 2195ft 0kts
22-Jan-22 20:17 36.209315 -115.198337 79 2195ft 0kts
22-Jan-22 20:18 36.209315 -115.198337 79 2195ft 0kts
22-Jan-22 20:19 36.209315 -115.198337 79 2195ft 0kts
22-Jan-22 20:20 36.209315 -115.198337 79 2195ft 0kts
22-Jan-22 20:21 36.208719 -115.198344 141 2195ft 3kts
22-Jan-22 20:22 36.207871 -115.195429 83 2185ft 7kts
22-Jan-22 20:23 36.205756 -115.192549 133 2174ft 17kts
22-Jan-22 20:24 36.204687 -115.191160 86 2168ft 0kts
22-Jan-22 20:25 36.204687 -115.191160 86 2168ft 0kts
22-Jan-22 20:26 36.204687 -115.191160 86 2168ft 0kts
22-Jan-22 20:27 36.206959 -115.192974 312 2178ft 66kts
22-Jan-22 20:28 36.219030 -115.218929 281 3374ft 90kts
22-Jan-22 20:29 36.223050 -115.249565 288 4887ft 92kts
22-Jan-22 20:30 36.239029 -115.272501 322 6374ft 90kts
22-Jan-22 20:31 36.257125 -115.276349 74 7851ft 85kts
22-Jan-22 20:32 36.242161 -115.252981 146 9318ft 99kts
22-Jan-22 20:33 36.205674 -115.232155 150 9036ft 171kts
22-Jan-22 20:34 36.161623 -115.206247 147 9029ft 178kts
22-Jan-22 20:35 36.118782 -115.176113 142 9032ft 176kts
22-Jan-22 20:36 36.078703 -115.142104 137 9033ft 173kts
22-Jan-22 20:37 36.035897 -115.115433 156 9035ft 178kts
22-Jan-22 20:38 35.990958 -115.091668 146 9034ft 174kts
22-Jan-22 20:39 35.948073 -115.064200 145 9031ft 173kts
22-Jan-22 20:40 35.905658 -115.036448 145 9028ft 172kts
22-Jan-22 20:41 35.863491 -115.008816 145 9023ft 171kts
22-Jan-22 20:42 35.821530 -114.981559 145 9020ft 170kts
22-Jan-22 20:43 35.779964 -114.954609 145 9034ft 168kts
22-Jan-22 20:44 35.738722 -114.927692 145 9045ft 168kts
22-Jan-22 20:45 35.697467 -114.900782 145 9045ft 168kts
22-Jan-22 20:46 35.656092 -114.873822 145 9042ft 168kts
22-Jan-22 20:47 35.614753 -114.846918 145 9033ft 168kts
22-Jan-22 20:48 35.573238 -114.819871 145 9021ft 169kts
22-Jan-22 20:49 35.531598 -114.792797 145 9005ft 169kts
22-Jan-22 20:50 35.487367 -114.770623 153 8992ft 173kts
22-Jan-22 20:51 35.441784 -114.751331 153 8985ft 173kts
22-Jan-22 20:52 35.396219 -114.732064 153 8981ft 173kts
22-Jan-22 20:53 35.350631 -114.712808 153 8980ft 173kts
22-Jan-22 20:54 35.305067 -114.693454 153 8980ft 173kts
22-Jan-22 20:55 35.259512 -114.674255 153 8980ft 173kts
22-Jan-22 20:56 35.213901 -114.655061 153 8980ft 173kts
22-Jan-22 20:57 35.168195 -114.635846 153 8980ft 173kts
22-Jan-22 20:58 35.122657 -114.616700 153 8866ft 180kts
22-Jan-22 20:59 35.071465 -114.595240 154 7476ft 197kts
22-Jan-22 21:01 35.019862 -114.573623 155 6137ft 193kts
22-Jan-22 21:02 34.974814 -114.554833 154 6074ft 157kts
22-Jan-22 21:03 34.933304 -114.541966 169 5864ft 166kts
22-Jan-22 21:04 34.883490 -114.536305 171 4889ft 186kts
22-Jan-22 21:05 34.854518 -114.565989 307 4259ft 150kts
22-Jan-22 21:06 34.888371 -114.564945 16 4269ft 124kts
22-Jan-22 21:07 34.920865 -114.553320 16 4272ft 120kts
22-Jan-22 21:08 34.953063 -114.543743 359 4237ft 123kts
22-Jan-22 21:09 34.987685 -114.546806 359 3724ft 123kts
22-Jan-22 21:10 35.020824 -114.549293 359 3118ft 118kts
22-Jan-22 21:11 35.050988 -114.551581 359 2570ft 91kts
22-Jan-22 21:12 35.074694 -114.551617 342 2023ft 84kts
22-Jan-22 21:13 35.096736 -114.555028 358 1641ft 79kts
22-Jan-22 21:14 35.118453 -114.556637 357 1229ft 72kts
22-Jan-22 21:15 35.137767 -114.558096 354 876ft 66kts
22-Jan-22 21:16 35.150844 -114.558929 5 705ft 15kts
22-Jan-22 21:17 35.151502 -114.557803 29 705ft 11kts
22-Jan-22 21:18 35.154447 -114.557942 358 705ft 10kts
22-Jan-22 21:19 35.156317 -114.556172 63 705ft 7kts

Navigation Log

Ident Type
Flight plan parsing failed, navigation log unavailable